METAR stanice u blizini

 

LYBE - Beograd / Surčin, Srbija
Ažurirano: 22/02/2018 00:00
Sneg, Pretežno oblačno
Sneg, Pretežno oblačno
 Pravac vetra I
Vetar: I 15 km/h
Temperatura: 0°C
Osećaj hladnoće: -4°C
Tačka rose: 0°C
Vlažnost: 100%
Pritisak: 1013 hPa
Pregled: Sneg
Oblaci: Mostly Cloudy
Vidljivost: 3 km
Cloud details: Mostly Cloudy 152 m
2018/02/21 23:00 LYBE 212300Z 08008KT 3000 SN BKN005 00/M00 Q1013 NOSIG
LYBT - Beograd / Batajnica, Srbija
Ažurirano: 22/02/2018 00:00
Snow rain, Pretežno oblačno
Snow rain, Pretežno oblačno
 Pravac vetra SI
Vetar: SI 7 km/h
Temperatura: 0°C
Osećaj hladnoće: -3°C
Tačka rose: 0°C
Vlažnost: 100%
Pritisak: 1013 hPa
Pregled: Snow Rain
Oblaci: Mostly Cloudy
Vidljivost: 3 km
Cloud details: Partly Cloudy 152 m
Mostly Cloudy 610 m
2018/02/21 23:00 LYBT 212300Z 04004KT 010V070 3000 SNRA SCT005 BKN020 00/00 Q1013 NOSIG
LYVR - Vršac, Srbija
Ažurirano: 22/02/2018 00:00
Vedro
Vedro
 Pravac vetra JI
Vetar: JI 6 km/h
Temperatura: 4°C
Tačka rose: 1°C
Vlažnost: 81%
Pritisak: 1013 hPa
Pregled: Vedro
Vidljivost: greater than 10 km
2018/02/21 23:00 LYVR 212300Z 14003KT 080V220 CAVOK 04/01 Q1013 NOSIG
 
LYKV - Lađevci, Srbija
Ažurirano: 22/02/2018 00:00
Light snow, Pretežno oblačno
Light snow, Pretežno oblačno
 Pravac vetra ZSZ
Vetar: ZSZ 6 km/h
Temperatura: 0°C
Tačka rose: 0°C
Vlažnost: 100%
Pritisak: 1011 hPa
Pregled: Light Snow
Oblaci: Mostly Cloudy
Vidljivost: 5 km
Cloud details: Mostly Cloudy 213 m
Mostly Cloudy 823 m
2018/02/21 23:00 LYKV 212300Z 30003KT 280V350 5000 -SN BKN007 BKN027 00/00 Q1011 RESN NOSIG
LYNI - Niš, Srbija
Ažurirano: 22/02/2018 00:00
Mostly Cloudy
Mostly Cloudy
 Pravac vetra ISI
Vetar: ISI 22 km/h
Temperatura: 5°C
Osećaj hladnoće: 1°C
Tačka rose: -2°C
Vlažnost: 61%
Pritisak: 1010 hPa
Oblaci: Mostly Cloudy
Vidljivost: 10 km
Cloud details: Mostly Cloudy 1829 m
2018/02/21 23:00 LYNI 212300Z 07012KT 040V100 9999 BKN060 05/M02 Q1010
BKPR - Priština, Srbija
Ažurirano: 22/02/2018 00:00
Mostly Cloudy
Mostly Cloudy
 Pravac vetra SSZ
Vetar: SSZ 9 km/h
Temperatura: 3°C
Osećaj hladnoće: 0°C
Tačka rose: 0°C
Vlažnost: 81%
Pritisak: 1007 hPa
Oblaci: Mostly Cloudy
Vidljivost: 10 km
Cloud details: Partly Cloudy 366 m
Mostly Cloudy 1067 m
2018/02/21 23:00 BKPR 212300Z 34005KT 290V040 9999 SCT012 BKN035 03/M00 Q1007 NOSIG RMK 17290095
 
LHPP - Pecs / Pogany, Hungary
Ažurirano: 21/02/2018 17:45
NOT Current
Oblačno
Oblačno
 Pravac vetra SI
Vetar: SI 13 km/h
Temperatura: 0°C
Osećaj hladnoće: -4°C
Tačka rose: 0°C
Vlažnost: 100%
Pritisak: 1014 hPa
Oblaci: Oblačno
Vidljivost: 9 km
Cloud details: Partly Cloudy 305 m
Oblačno 2530 m
2018/02/21 16:45 LHPP 211645Z 05007KT 9000 SCT010 OVC083 00/M00 Q1014
LHUD - Szeged, Hungary
Ažurirano: 21/02/2018 23:45
Oblačno
Oblačno
 Pravac vetra SSI
Vetar: SSI 22 km/h
Temperatura: 2°C
Osećaj hladnoće: -3°C
Tačka rose: 1°C
Vlažnost: 93%
Pritisak: 1015 hPa
Oblaci: Oblačno
Vidljivost: 6 km
Cloud details: Oblačno 183 m
2018/02/21 22:45 LHUD 212245Z 03012KT 6000 OVC006 02/01 Q1015
LRTR - Timisoara, Romania
Ažurirano: 22/02/2018 00:00
Partly Cloudy
Partly Cloudy
 Pravac vetra IJI
Vetar: IJI 6 km/h
Temperatura: 3°C
Tačka rose: 2°C
Vlažnost: 93%
Pritisak: 1013 hPa
Oblaci: Partly Cloudy
Vidljivost: 6 km
2018/02/21 23:00 LRTR 212300Z 12003KT 6000 NSC 03/02 Q1013 R11/19//95 NOSIG
 
LRCV - Craiova, Romania
Ažurirano: 22/02/2018 00:00
Mostly Cloudy
Mostly Cloudy
 Pravac vetra ISI
Vetar: ISI 28 km/h
Temperatura: 1°C
Osećaj hladnoće: -5°C
Tačka rose: 0°C
Vlažnost: 93%
Pritisak: 1015 hPa
Oblaci: Mostly Cloudy
Vidljivost: 7 km
Cloud details: Mostly Cloudy 244 m
2018/02/21 23:00 LRCV 212300Z 06015KT 7000 BKN008 01/M00 Q1015 R09/29//94
LBSF - Sofia, Bulgaria
Ažurirano: 22/02/2018 00:00
Oblačno
Oblačno
 Pravac vetra IJI
Vetar: IJI 19 km/h
Temperatura: 4°C
Osećaj hladnoće: 0°C
Tačka rose: 4°C
Vlažnost: 100%
Pritisak: 1011 hPa
Oblaci: Oblačno
Vidljivost: 10 km
Cloud details: Oblačno 366 m
2018/02/21 23:00 LBSF 212300Z 12010KT 9999 OVC012 04/04 Q1011 NOSIG
LWSK - Skoplje, Makedonija
Ažurirano: 22/02/2018 00:00
Oblačno
Oblačno
 Pravac vetra IJI
Vetar: IJI 4 km/h
Temperatura: 6°C
Tačka rose: 5°C
Vlažnost: 93%
Pritisak: 1009 hPa
Oblaci: Oblačno
Vidljivost: 10 km
Cloud details: Few Clouds 701 m
Oblačno 1006 m
2018/02/21 23:00 LWSK 212300Z 12002KT 9999 FEW023 OVC033 06/05 Q1009 NOSIG
 
LYPG - Podgorica, Crna Gora
Ažurirano: 22/02/2018 00:00
Mist, Oblačno
Mist, Oblačno
 Pravac vetra varies
Vetar: varies 2 km/h
Temperatura: 7°C
Tačka rose: 7°C
Vlažnost: 100%
Pritisak: 1005 hPa
Pregled: Mist
Oblaci: Oblačno
Vidljivost: 4 km
Cloud details: Mostly Cloudy 1219 m
Oblačno 2134 m
2018/02/21 23:00 LYPG 212300Z VRB01KT 4000 BR BKN040 OVC070 07/07 Q1005 NOSIG
LQSA - Sarajevo, Bosna i Hercegovina
Ažurirano: 22/02/2018 00:00
Sneg, Pretežno oblačno
Sneg, Pretežno oblačno
 Pravac vetra ZSZ
Vetar: ZSZ 7 km/h
Temperatura: -1°C
Osećaj hladnoće: -4°C
Tačka rose: -1°C
Vlažnost: 100%
Pritisak: 1008 hPa
Pregled: Sneg
Oblaci: Mostly Cloudy
Vidljivost: 4 km
Cloud details: Few Clouds 91 m
Partly Cloudy 305 m
Mostly Cloudy 610 m
2018/02/21 23:00 LQSA 212300Z 30004KT 4000 SN FEW003 SCT010 BKN020 M01/M01 Q1008
LDOS - Osijek, Hrvatksa
Ažurirano: 22/02/2018 00:00
Slaba kiša, Oblačno
Slaba kiša, Oblačno
 Pravac vetra ISI
Vetar: ISI 15 km/h
Temperatura: 1°C
Osećaj hladnoće: -3°C
Tačka rose: 1°C
Vlažnost: 100%
Pritisak: 1013 hPa
Pregled: Light Rain
Oblaci: Oblačno
Vidljivost: 7 km
Cloud details: Mostly Cloudy 91 m
Oblačno 701 m
2018/02/21 23:00 LDOS 212300Z 06008KT 7000 -RA BKN003 OVC023 01/01 Q1013 R11/29//95